Lynradar: storm image Ingen tordenbyger registrert..



Vårt webkamera mer informasjon My webcam


Kamera på Foreneset mer informasjon webcam on foreneset


Nedbørsradar  rain snow radar


Besøk vår andre værside:

Alternativ webside

iphone versjon

Nettbrett versjon

Foreneset
verstasjon



Ikke nødvendig med spesiell oppmerksomhet.    Det er ingen advarsler

Nære METAR rapporter

     
ENZV - Stavanger
oppdatert: 15-09-2019 07:20
Lette byger, Regn, For det meste skyet  
Lette byger, Regn, For det meste skyet  
   Vind: VEST 14.4 m/s<br />Gust to 14.4 m/s
Vind: VEST 14.4 m/s
Gust to 14.4 m/s
Temperatur: 12°C
Duggpunkt: 6°C
Fuktighet: 67%
Barometer: 1007 hPa
Skyer: For det meste skyet
Sikt: mer enn 10 km
Skydetaljer: Få Skyer 304.8 m,
Delvis Skyet 853.4 m,
For det meste skyet 1371.6 m
ENZV 150520Z 27028G41KT 9999 -SHRA FEW010 SCT028CB BKN045 12/06 Q1007 RESHRA TEMPO SHRA
ENHD - Haugesund
oppdatert: 15-09-2019 07:20
Få Skyer  
Få Skyer  
   Vind: VEST 17.5 m/s
Vind: VEST 17.5 m/s
Temperatur: 12°C
Duggpunkt: 5°C
Fuktighet: 63%
Barometer: 1005 hPa
Skyer: Få Skyer
Sikt: 8 km
Skydetaljer: Få Skyer 975.4 m
ENHD 150520Z AUTO 27034KT 8000 FEW032/// 12/05 Q1005
ENBR - Bergen
oppdatert: 15-09-2019 07:20
Nære Byger, For det meste skyet  
Nære Byger, For det meste skyet  
   Vind: VEST 8.7 m/s<br />Gust to 8.7 m/s
Vind: VEST 8.7 m/s
Gust to 8.7 m/s
Temperatur: 10°C
Wind Chill: 7°C
Duggpunkt: 5°C
Fuktighet: 71%
Barometer: 1001 hPa
Skyer: For det meste skyet
Sikt: mer enn 10 km
Skydetaljer: Få Skyer 243.8 m,
Delvis Skyet 609.6 m,
For det meste skyet 1219.2 m
ENBR 150520Z 26017G27KT 9999 7000NE VCSH FEW008 SCT020CB BKN040 10/05 Q1001 RESHRA TEMPO 26027G37KT 4000 SHRA BKN015CB RMK WIND 1200FT 27036G59KT
ENCN - Kristiansand
oppdatert: 15-09-2019 07:20
Få Skyer  
Få Skyer  
   Vind: SV 6.2 m/s
Vind: SV 6.2 m/s
Temperatur: 11°C
Duggpunkt: 9°C
Fuktighet: 88%
Barometer: 1005 hPa
Skyer: Få Skyer
Sikt: mer enn 10 km
Skydetaljer: Få Skyer 914.4 m
ENCN 150520Z 23012KT 9999 FEW030 11/09 Q1005
ENGM - Oslo
oppdatert: 15-09-2019 07:20
Klart  
Klart  
   Vind: SSV 5.1 m/s
Vind: SSV 5.1 m/s
Temperatur: 9°C
Wind Chill: 6°C
Duggpunkt: 5°C
Fuktighet: 76%
Barometer: 997 hPa
Sikt: mer enn 10 km
Skydetaljer: Klart
ENGM 150520Z 20010KT 170V230 CAVOK 09/05 Q0997 NOSIG
ENVA - Trondheim
oppdatert: 15-09-2019 07:20
For det meste skyet  
For det meste skyet  
   Vind: SØ 2.1 m/s
Vind: SØ 2.1 m/s
Temperatur: 7°C
Wind Chill: 6°C
Duggpunkt: 7°C
Fuktighet: 100%
Barometer: 990 hPa
Skyer: For det meste skyet
Sikt: mer enn 10 km
Skydetaljer: Få Skyer 91.4 m,
Delvis Skyet 1219.2 m,
For det meste skyet 2316.5 m
ENVA 150520Z 14004KT 080V180 9999 FEW003 SCT040 BKN076 07/07 Q0990 NOSIG RMK WIND 670FT 16014KT
    

Script utviklet av  Saratoga-weather.org Tilrettelagt for malen av  Weerstation Leuven

Du finner vår vær info også på:

UK Metoffice

European Weather Network

WeatherCloud

Weather Underground

Utstyr vi bruker:

Værstsjon
Davis VP2

Værprogram
Weather Display

Davis VP2

Weather Display